DAL1601 KATL-KMIA
Flight info
| Callsign | DAL1601 |
|---|---|
| Flight time | 1h 20m |
| Altitude | 40000 |
| Route | BANNG3 LUCKK HONID FROGZ5 |
| Aircraft | A359/H-SDE2E3GHIJ3J4J5LM1ORWXY/LB1D1 |
Departure
| Time | 2026-05-08 05:21 |
|---|---|
| Airport | Hartsfield Jackson Atlanta International Airport (KATL) |
Arrival
| Time | 2026-05-08 06:41 |
|---|---|
| Airport | Miami International Airport (KMIA) |
| Time | Latitude | Longitude | Altitude | Speed | Heading |
|---|---|---|---|---|---|
| 2026-05-08 04:56 | 33.63923 | -84.44181 | 1013 ft | 0 kts | 270° |
| 2026-05-08 05:07 | 33.63923 | -84.44178 | 1013 ft | 3 kts | 270° |
| 2026-05-08 05:08 | 33.63925 | -84.44154 | 1013 ft | 3 kts | 237° |
| 2026-05-08 05:08 | 33.63936 | -84.44136 | 1013 ft | 3 kts | 233° |
| 2026-05-08 05:08 | 33.63949 | -84.44119 | 1013 ft | 2 kts | 204° |
| 2026-05-08 05:08 | 33.63960 | -84.44113 | 1013 ft | 0 kts | 183° |
| 2026-05-08 05:14 | 33.63933 | -84.44115 | 1013 ft | 13 kts | 183° |
| 2026-05-08 05:14 | 33.63831 | -84.44114 | 1013 ft | 17 kts | 179° |
| 2026-05-08 05:14 | 33.63707 | -84.44102 | 1013 ft | 19 kts | 161° |
| 2026-05-08 05:15 | 33.63597 | -84.44011 | 1013 ft | 18 kts | 118° |
| 2026-05-08 05:15 | 33.63585 | -84.43851 | 1013 ft | 21 kts | 89° |
| 2026-05-08 05:15 | 33.63585 | -84.43659 | 1013 ft | 24 kts | 93° |
| 2026-05-08 05:15 | 33.63582 | -84.43443 | 1012 ft | 28 kts | 89° |
| 2026-05-08 05:16 | 33.63582 | -84.43201 | 1012 ft | 30 kts | 90° |
| 2026-05-08 05:16 | 33.63582 | -84.42939 | 1012 ft | 33 kts | 89° |
| 2026-05-08 05:16 | 33.63585 | -84.42660 | 1013 ft | 34 kts | 90° |
| 2026-05-08 05:16 | 33.63585 | -84.42365 | 1013 ft | 36 kts | 91° |
| 2026-05-08 05:17 | 33.63580 | -84.42112 | 1013 ft | 30 kts | 90° |
| 2026-05-08 05:17 | 33.63581 | -84.41850 | 1012 ft | 33 kts | 90° |
| 2026-05-08 05:17 | 33.63583 | -84.41573 | 1012 ft | 26 kts | 90° |
| 2026-05-08 05:17 | 33.63582 | -84.41352 | 1012 ft | 28 kts | 90° |
| 2026-05-08 05:18 | 33.63580 | -84.41115 | 1012 ft | 20 kts | 91° |
| 2026-05-08 05:18 | 33.63580 | -84.40998 | 1012 ft | 15 kts | 90° |
| 2026-05-08 05:18 | 33.63581 | -84.40873 | 1013 ft | 13 kts | 90° |
| 2026-05-08 05:18 | 33.63566 | -84.40776 | 1013 ft | 9 kts | 131° |
| 2026-05-08 05:19 | 33.63503 | -84.40752 | 1013 ft | 10 kts | 193° |
| 2026-05-08 05:19 | 33.63474 | -84.40812 | 1013 ft | 7 kts | 259° |
| 2026-05-08 05:19 | 33.63472 | -84.40836 | 1013 ft | 0 kts | 266° |
| 2026-05-08 05:20 | 33.63470 | -84.40874 | 1014 ft | 28 kts | 266° |
| 2026-05-08 05:20 | 33.63471 | -84.41470 | 1013 ft | 112 kts | 269° |
| 2026-05-08 05:21 | 33.63468 | -84.42679 | 1147 ft | 167 kts | 270° |
| 2026-05-08 05:21 | 33.63477 | -84.44137 | 1810 ft | 182 kts | 273° |
| 2026-05-08 05:21 | 33.63515 | -84.45721 | 2457 ft | 202 kts | 276° |
| 2026-05-08 05:21 | 33.63553 | -84.47505 | 2787 ft | 226 kts | 275° |
| 2026-05-08 05:22 | 33.63566 | -84.49485 | 3235 ft | 247 kts | 273° |
| 2026-05-08 05:22 | 33.63560 | -84.51587 | 3912 ft | 255 kts | 272° |
| 2026-05-08 05:22 | 33.63590 | -84.53692 | 4760 ft | 255 kts | 274° |
| 2026-05-08 05:22 | 33.63699 | -84.55793 | 5748 ft | 248 kts | 272° |
| 2026-05-08 05:23 | 33.63671 | -84.57814 | 6800 ft | 237 kts | 268° |
| 2026-05-08 05:23 | 33.63599 | -84.59782 | 7642 ft | 237 kts | 268° |
| 2026-05-08 05:23 | 33.63538 | -84.61764 | 8360 ft | 239 kts | 268° |
| 2026-05-08 05:23 | 33.63403 | -84.63749 | 9138 ft | 240 kts | 262° |
| 2026-05-08 05:24 | 33.62962 | -84.65688 | 9895 ft | 243 kts | 250° |
| 2026-05-08 05:24 | 33.62850 | -84.65986 | 10035 ft | 244 kts | 248° |
| 2026-05-08 05:24 | 33.62012 | -84.67476 | 10612 ft | 252 kts | 234° |
| 2026-05-08 05:24 | 33.61093 | -84.68383 | 11016 ft | 265 kts | 220° |
| 2026-05-08 05:25 | 33.59282 | -84.69090 | 11591 ft | 291 kts | 193° |
| 2026-05-08 05:25 | 33.57211 | -84.68949 | 12236 ft | 304 kts | 183° |
| 2026-05-08 05:25 | 33.55103 | -84.68607 | 12855 ft | 308 kts | 183° |
| 2026-05-08 05:25 | 33.52959 | -84.68267 | 13463 ft | 312 kts | 184° |
| 2026-05-08 05:26 | 33.50789 | -84.67952 | 14051 ft | 316 kts | 185° |
| 2026-05-08 05:26 | 33.48596 | -84.67653 | 14639 ft | 318 kts | 185° |
| 2026-05-08 05:26 | 33.46395 | -84.67365 | 15248 ft | 319 kts | 185° |
| 2026-05-08 05:26 | 33.44202 | -84.67086 | 15869 ft | 322 kts | 185° |
| 2026-05-08 05:27 | 33.41963 | -84.66630 | 16448 ft | 335 kts | 176° |
| 2026-05-08 05:27 | 33.39700 | -84.65655 | 16808 ft | 356 kts | 168° |
| 2026-05-08 05:27 | 33.37390 | -84.64425 | 17057 ft | 371 kts | 166° |
| 2026-05-08 05:27 | 33.35000 | -84.63107 | 17292 ft | 384 kts | 165° |
| 2026-05-08 05:28 | 33.32539 | -84.61754 | 17526 ft | 395 kts | 165° |
| 2026-05-08 05:28 | 33.30002 | -84.60369 | 17813 ft | 404 kts | 165° |
| 2026-05-08 05:28 | 33.27430 | -84.58969 | 18254 ft | 408 kts | 165° |
| 2026-05-08 05:28 | 33.24835 | -84.57561 | 18632 ft | 411 kts | 165° |
| 2026-05-08 05:29 | 33.22220 | -84.56147 | 19019 ft | 414 kts | 165° |
| 2026-05-08 05:29 | 33.19585 | -84.54727 | 19435 ft | 416 kts | 165° |
| 2026-05-08 05:29 | 33.16941 | -84.53304 | 19841 ft | 418 kts | 166° |
| 2026-05-08 05:29 | 33.14282 | -84.51874 | 20235 ft | 420 kts | 166° |
| 2026-05-08 05:30 | 33.11642 | -84.50457 | 20623 ft | 422 kts | 166° |
| 2026-05-08 05:30 | 33.08951 | -84.49014 | 21023 ft | 425 kts | 166° |
| 2026-05-08 05:30 | 33.06248 | -84.47566 | 21422 ft | 427 kts | 166° |
| 2026-05-08 05:30 | 33.03524 | -84.46107 | 21782 ft | 429 kts | 166° |
| 2026-05-08 05:31 | 33.00795 | -84.44645 | 22215 ft | 429 kts | 166° |
| 2026-05-08 05:31 | 32.98046 | -84.43273 | 22588 ft | 426 kts | 170° |
| 2026-05-08 05:31 | 32.95226 | -84.42364 | 22952 ft | 415 kts | 180° |
| 2026-05-08 05:31 | 32.92429 | -84.42031 | 23327 ft | 406 kts | 188° |
| 2026-05-08 05:32 | 32.89612 | -84.41953 | 23676 ft | 406 kts | 190° |
| 2026-05-08 05:32 | 32.86784 | -84.41916 | 23966 ft | 408 kts | 190° |
| 2026-05-08 05:32 | 32.83933 | -84.41875 | 24270 ft | 410 kts | 190° |
| 2026-05-08 05:32 | 32.81070 | -84.41828 | 24574 ft | 413 kts | 190° |
| 2026-05-08 05:33 | 32.78191 | -84.41776 | 24889 ft | 415 kts | 190° |
| 2026-05-08 05:33 | 32.75294 | -84.41721 | 25187 ft | 417 kts | 190° |
| 2026-05-08 05:33 | 32.72385 | -84.41664 | 25504 ft | 419 kts | 190° |
| 2026-05-08 05:33 | 32.69462 | -84.41606 | 25821 ft | 421 kts | 190° |
| 2026-05-08 05:34 | 32.66526 | -84.41548 | 26171 ft | 423 kts | 190° |
| 2026-05-08 05:34 | 32.63574 | -84.41490 | 26476 ft | 426 kts | 190° |
| 2026-05-08 05:34 | 32.60608 | -84.41430 | 26823 ft | 428 kts | 190° |
| 2026-05-08 05:34 | 32.57621 | -84.41371 | 27165 ft | 430 kts | 190° |
| 2026-05-08 05:35 | 32.54621 | -84.41311 | 27510 ft | 432 kts | 190° |
| 2026-05-08 05:35 | 32.51607 | -84.41251 | 27878 ft | 435 kts | 190° |
| 2026-05-08 05:35 | 32.48576 | -84.41190 | 28210 ft | 437 kts | 190° |
| 2026-05-08 05:35 | 32.45524 | -84.41130 | 28549 ft | 441 kts | 190° |
| 2026-05-08 05:36 | 32.42445 | -84.41069 | 28914 ft | 443 kts | 190° |
| 2026-05-08 05:36 | 32.39353 | -84.41007 | 29296 ft | 446 kts | 190° |
| 2026-05-08 05:36 | 32.36237 | -84.40945 | 29644 ft | 449 kts | 190° |
| 2026-05-08 05:36 | 32.33106 | -84.40883 | 30025 ft | 452 kts | 190° |
| 2026-05-08 05:37 | 32.29954 | -84.40821 | 30378 ft | 454 kts | 190° |
| 2026-05-08 05:37 | 32.26783 | -84.40758 | 30759 ft | 456 kts | 190° |
| 2026-05-08 05:37 | 32.23650 | -84.40695 | 31159 ft | 457 kts | 190° |
| 2026-05-08 05:37 | 32.20455 | -84.40631 | 31510 ft | 459 kts | 190° |
| 2026-05-08 05:38 | 32.17251 | -84.40569 | 31861 ft | 462 kts | 190° |
| 2026-05-08 05:38 | 32.14029 | -84.40504 | 32254 ft | 463 kts | 190° |
| 2026-05-08 05:38 | 32.10799 | -84.40439 | 32636 ft | 465 kts | 190° |
| 2026-05-08 05:38 | 32.07565 | -84.40374 | 33025 ft | 466 kts | 191° |
| 2026-05-08 05:39 | 32.04316 | -84.40308 | 33398 ft | 467 kts | 191° |
| 2026-05-08 05:39 | 32.01059 | -84.40244 | 33757 ft | 469 kts | 191° |
| 2026-05-08 05:39 | 31.97790 | -84.40179 | 34106 ft | 471 kts | 191° |
| 2026-05-08 05:39 | 31.94500 | -84.40115 | 34309 ft | 474 kts | 191° |
| 2026-05-08 05:40 | 31.91179 | -84.40054 | 34414 ft | 481 kts | 190° |
| 2026-05-08 05:40 | 31.87822 | -84.39992 | 34633 ft | 484 kts | 190° |
| 2026-05-08 05:40 | 31.84445 | -84.39925 | 34898 ft | 486 kts | 190° |
| 2026-05-08 05:40 | 31.81103 | -84.39856 | 35181 ft | 487 kts | 190° |
| 2026-05-08 05:41 | 31.77719 | -84.39784 | 35552 ft | 487 kts | 190° |
| 2026-05-08 05:41 | 31.74325 | -84.39712 | 35918 ft | 486 kts | 191° |
| 2026-05-08 05:41 | 31.70937 | -84.39643 | 36275 ft | 487 kts | 191° |
| 2026-05-08 05:41 | 31.67550 | -84.39575 | 36594 ft | 487 kts | 191° |
| 2026-05-08 05:42 | 31.64138 | -84.39307 | 36908 ft | 500 kts | 183° |
| 2026-05-08 05:42 | 31.60687 | -84.38551 | 37245 ft | 507 kts | 179° |
| 2026-05-08 05:42 | 31.57233 | -84.37669 | 37609 ft | 508 kts | 179° |
| 2026-05-08 05:42 | 31.53785 | -84.36777 | 37985 ft | 508 kts | 179° |
| 2026-05-08 05:43 | 31.50327 | -84.35888 | 38339 ft | 508 kts | 179° |
| 2026-05-08 05:43 | 31.46872 | -84.35006 | 38706 ft | 507 kts | 179° |
| 2026-05-08 05:43 | 31.43424 | -84.34130 | 39000 ft | 507 kts | 179° |
| 2026-05-08 05:43 | 31.39978 | -84.33256 | 39327 ft | 506 kts | 179° |
| 2026-05-08 05:44 | 31.36587 | -84.32400 | 39564 ft | 506 kts | 179° |
| 2026-05-08 05:44 | 31.33143 | -84.31531 | 39844 ft | 506 kts | 179° |
| 2026-05-08 05:44 | 31.29702 | -84.30664 | 40006 ft | 506 kts | 179° |
| 2026-05-08 05:45 | 31.22834 | -84.28932 | 40034 ft | 504 kts | 179° |
| 2026-05-08 05:45 | 31.15963 | -84.27206 | 40036 ft | 505 kts | 178° |
| 2026-05-08 05:46 | 31.09077 | -84.25479 | 40022 ft | 506 kts | 178° |
| 2026-05-08 05:46 | 31.02198 | -84.23755 | 40022 ft | 505 kts | 178° |
| 2026-05-08 05:47 | 30.95359 | -84.22044 | 40018 ft | 505 kts | 178° |
| 2026-05-08 05:47 | 30.88485 | -84.20326 | 40011 ft | 505 kts | 178° |
| 2026-05-08 05:48 | 30.81612 | -84.18612 | 39990 ft | 505 kts | 178° |
| 2026-05-08 05:48 | 30.74740 | -84.16899 | 40019 ft | 505 kts | 178° |
| 2026-05-08 05:49 | 30.67861 | -84.15187 | 40012 ft | 505 kts | 178° |
| 2026-05-08 05:49 | 30.60990 | -84.13480 | 40011 ft | 505 kts | 178° |
| 2026-05-08 05:50 | 30.54150 | -84.11783 | 40021 ft | 505 kts | 178° |
| 2026-05-08 05:50 | 30.47277 | -84.10081 | 40016 ft | 505 kts | 178° |
| 2026-05-08 05:51 | 30.40392 | -84.08359 | 40014 ft | 507 kts | 176° |
| 2026-05-08 05:51 | 30.36987 | -84.07125 | 40019 ft | 520 kts | 167° |
| 2026-05-08 05:51 | 30.33698 | -84.05260 | 40017 ft | 530 kts | 160° |
| 2026-05-08 05:52 | 30.27319 | -84.01014 | 40003 ft | 532 kts | 158° |
| 2026-05-08 05:52 | 30.20909 | -83.96726 | 40007 ft | 531 kts | 158° |
| 2026-05-08 05:53 | 30.14515 | -83.92480 | 40013 ft | 530 kts | 158° |
| 2026-05-08 05:53 | 30.08108 | -83.88240 | 40019 ft | 530 kts | 158° |
| 2026-05-08 05:54 | 30.01699 | -83.84009 | 40026 ft | 531 kts | 158° |
| 2026-05-08 05:54 | 29.95326 | -83.79808 | 40010 ft | 531 kts | 158° |
| 2026-05-08 05:55 | 29.88916 | -83.75589 | 40028 ft | 530 kts | 158° |
| 2026-05-08 05:55 | 29.82520 | -83.71384 | 40026 ft | 529 kts | 158° |
| 2026-05-08 05:56 | 29.76121 | -83.67185 | 40023 ft | 529 kts | 158° |
| 2026-05-08 05:56 | 29.69725 | -83.62994 | 40020 ft | 529 kts | 158° |
| 2026-05-08 05:57 | 29.63316 | -83.58802 | 40017 ft | 528 kts | 158° |
| 2026-05-08 05:57 | 29.56940 | -83.54635 | 40020 ft | 526 kts | 158° |
| 2026-05-08 05:58 | 29.50575 | -83.50483 | 40020 ft | 526 kts | 158° |
| 2026-05-08 05:58 | 29.44248 | -83.46362 | 40021 ft | 526 kts | 158° |
| 2026-05-08 05:59 | 29.37885 | -83.42224 | 40021 ft | 526 kts | 158° |
| 2026-05-08 05:59 | 29.31519 | -83.38088 | 40025 ft | 525 kts | 158° |
| 2026-05-08 06:00 | 29.25137 | -83.34054 | 40028 ft | 521 kts | 161° |
| 2026-05-08 06:00 | 29.18555 | -83.30640 | 40030 ft | 518 kts | 163° |
| 2026-05-08 06:01 | 29.11958 | -83.27308 | 40023 ft | 518 kts | 163° |
| 2026-05-08 06:01 | 29.05361 | -83.23972 | 40016 ft | 518 kts | 163° |
| 2026-05-08 06:02 | 28.98779 | -83.20642 | 40026 ft | 517 kts | 163° |
| 2026-05-08 06:02 | 28.92200 | -83.17319 | 40026 ft | 517 kts | 163° |
| 2026-05-08 06:03 | 28.85620 | -83.14000 | 40030 ft | 517 kts | 163° |
| 2026-05-08 06:03 | 28.79036 | -83.10683 | 40028 ft | 518 kts | 163° |
| 2026-05-08 06:04 | 28.72449 | -83.07369 | 40028 ft | 517 kts | 163° |
| 2026-05-08 06:04 | 28.65918 | -83.04087 | 40026 ft | 516 kts | 163° |
| 2026-05-08 06:05 | 28.59345 | -83.00789 | 40031 ft | 516 kts | 163° |
| 2026-05-08 06:05 | 28.52770 | -82.97494 | 40032 ft | 516 kts | 163° |
| 2026-05-08 06:06 | 28.46193 | -82.94204 | 40017 ft | 516 kts | 162° |
| 2026-05-08 06:06 | 28.39624 | -82.90921 | 40031 ft | 515 kts | 162° |
| 2026-05-08 06:07 | 28.33060 | -82.87645 | 40031 ft | 515 kts | 162° |
| 2026-05-08 06:07 | 28.26499 | -82.84376 | 40030 ft | 515 kts | 162° |
| 2026-05-08 06:08 | 28.19932 | -82.81108 | 40030 ft | 515 kts | 162° |
| 2026-05-08 06:08 | 28.13371 | -82.77847 | 40026 ft | 515 kts | 162° |
| 2026-05-08 06:09 | 28.06808 | -82.74590 | 40046 ft | 515 kts | 162° |
| 2026-05-08 06:09 | 28.00168 | -82.71665 | 40043 ft | 506 kts | 172° |
| 2026-05-08 06:10 | 27.93351 | -82.70172 | 40035 ft | 501 kts | 177° |
| 2026-05-08 06:10 | 27.86467 | -82.68839 | 40019 ft | 501 kts | 176° |
| 2026-05-08 06:11 | 27.79590 | -82.67494 | 40029 ft | 502 kts | 176° |
| 2026-05-08 06:11 | 27.72711 | -82.66142 | 40024 ft | 502 kts | 176° |
| 2026-05-08 06:12 | 27.65830 | -82.64790 | 40025 ft | 502 kts | 176° |
| 2026-05-08 06:12 | 27.58941 | -82.63437 | 40027 ft | 502 kts | 176° |
| 2026-05-08 06:13 | 27.52111 | -82.62019 | 40027 ft | 505 kts | 173° |
| 2026-05-08 06:13 | 27.45295 | -82.60033 | 40030 ft | 507 kts | 171° |
| 2026-05-08 06:14 | 27.38478 | -82.58005 | 40036 ft | 506 kts | 171° |
| 2026-05-08 06:14 | 27.31664 | -82.55996 | 40033 ft | 506 kts | 171° |
| 2026-05-08 06:15 | 27.24845 | -82.53996 | 40037 ft | 506 kts | 171° |
| 2026-05-08 06:15 | 27.18036 | -82.52002 | 40034 ft | 505 kts | 171° |
| 2026-05-08 06:16 | 27.11230 | -82.50012 | 40036 ft | 505 kts | 171° |
| 2026-05-08 06:16 | 27.04427 | -82.48026 | 40028 ft | 505 kts | 171° |
| 2026-05-08 06:17 | 26.94244 | -82.44918 | 40021 ft | 509 kts | 165° |
| 2026-05-08 06:17 | 26.88031 | -82.40963 | 40030 ft | 521 kts | 145° |
| 2026-05-08 06:18 | 26.82549 | -82.35732 | 39352 ft | 521 kts | 142° |
| 2026-05-08 06:18 | 26.79808 | -82.33075 | 38621 ft | 522 kts | 142° |
| 2026-05-08 06:18 | 26.77052 | -82.30415 | 37795 ft | 524 kts | 143° |
| 2026-05-08 06:19 | 26.74286 | -82.27755 | 37029 ft | 524 kts | 143° |
| 2026-05-08 06:19 | 26.71514 | -82.25096 | 36249 ft | 524 kts | 143° |
| 2026-05-08 06:19 | 26.68739 | -82.22439 | 35446 ft | 526 kts | 143° |
| 2026-05-08 06:19 | 26.66897 | -82.20677 | 34882 ft | 527 kts | 143° |
| 2026-05-08 06:20 | 26.64096 | -82.18002 | 33930 ft | 531 kts | 143° |
| 2026-05-08 06:20 | 26.61278 | -82.15312 | 32874 ft | 535 kts | 143° |
| 2026-05-08 06:20 | 26.58441 | -82.12605 | 31852 ft | 537 kts | 143° |
| 2026-05-08 06:20 | 26.55591 | -82.09887 | 30849 ft | 539 kts | 143° |
| 2026-05-08 06:21 | 26.52750 | -82.07162 | 30184 ft | 534 kts | 142° |
| 2026-05-08 06:21 | 26.49993 | -82.04409 | 29405 ft | 529 kts | 141° |
| 2026-05-08 06:21 | 26.47279 | -82.01665 | 28699 ft | 523 kts | 141° |
| 2026-05-08 06:21 | 26.44598 | -81.98955 | 28008 ft | 517 kts | 141° |
| 2026-05-08 06:22 | 26.41946 | -81.96280 | 27328 ft | 512 kts | 141° |
| 2026-05-08 06:22 | 26.39317 | -81.93632 | 26651 ft | 506 kts | 141° |
| 2026-05-08 06:22 | 26.36715 | -81.91015 | 25982 ft | 501 kts | 141° |
| 2026-05-08 06:22 | 26.34140 | -81.88428 | 25291 ft | 497 kts | 141° |
| 2026-05-08 06:23 | 26.31591 | -81.85868 | 24877 ft | 486 kts | 141° |
| 2026-05-08 06:23 | 26.29125 | -81.83390 | 24761 ft | 469 kts | 141° |
| 2026-05-08 06:23 | 26.26745 | -81.81000 | 24605 ft | 453 kts | 141° |
| 2026-05-08 06:23 | 26.24490 | -81.78623 | 24399 ft | 442 kts | 135° |
| 2026-05-08 06:24 | 26.22719 | -81.75816 | 23802 ft | 446 kts | 120° |
| 2026-05-08 06:24 | 26.21334 | -81.72733 | 23147 ft | 446 kts | 116° |
| 2026-05-08 06:24 | 26.20032 | -81.69658 | 22542 ft | 442 kts | 116° |
| 2026-05-08 06:24 | 26.18708 | -81.66540 | 21976 ft | 437 kts | 116° |
| 2026-05-08 06:25 | 26.17421 | -81.63539 | 21435 ft | 433 kts | 116° |
| 2026-05-08 06:25 | 26.16124 | -81.60535 | 20894 ft | 428 kts | 117° |
| 2026-05-08 06:25 | 26.14836 | -81.57565 | 20369 ft | 424 kts | 117° |
| 2026-05-08 06:25 | 26.13558 | -81.54625 | 19838 ft | 419 kts | 117° |
| 2026-05-08 06:26 | 26.12293 | -81.51721 | 19324 ft | 415 kts | 117° |
| 2026-05-08 06:26 | 26.11039 | -81.48845 | 18808 ft | 411 kts | 116° |
| 2026-05-08 06:26 | 26.09794 | -81.45994 | 18308 ft | 407 kts | 116° |
| 2026-05-08 06:26 | 26.08564 | -81.43178 | 17759 ft | 402 kts | 116° |
| 2026-05-08 06:27 | 26.07346 | -81.40393 | 17222 ft | 397 kts | 116° |
| 2026-05-08 06:27 | 26.06151 | -81.37650 | 16705 ft | 392 kts | 116° |
| 2026-05-08 06:27 | 26.04966 | -81.34928 | 16161 ft | 387 kts | 117° |
| 2026-05-08 06:27 | 26.03800 | -81.32252 | 15659 ft | 382 kts | 117° |
| 2026-05-08 06:28 | 26.02661 | -81.29637 | 15153 ft | 377 kts | 117° |
| 2026-05-08 06:28 | 26.01523 | -81.27030 | 14653 ft | 373 kts | 117° |
| 2026-05-08 06:28 | 26.00398 | -81.24452 | 14140 ft | 369 kts | 117° |
| 2026-05-08 06:28 | 25.99284 | -81.21902 | 13615 ft | 364 kts | 117° |
| 2026-05-08 06:29 | 25.98185 | -81.19388 | 13084 ft | 359 kts | 117° |
| 2026-05-08 06:29 | 25.97103 | -81.16913 | 12511 ft | 354 kts | 117° |
| 2026-05-08 06:29 | 25.96037 | -81.14475 | 12083 ft | 347 kts | 116° |
| 2026-05-08 06:29 | 25.94989 | -81.12083 | 11636 ft | 340 kts | 116° |
| 2026-05-08 06:30 | 25.93962 | -81.09738 | 11192 ft | 336 kts | 116° |
| 2026-05-08 06:30 | 25.92942 | -81.07409 | 10734 ft | 333 kts | 116° |
| 2026-05-08 06:30 | 25.91933 | -81.05110 | 10276 ft | 329 kts | 116° |
| 2026-05-08 06:30 | 25.90993 | -81.02851 | 10145 ft | 314 kts | 114° |
| 2026-05-08 06:31 | 25.90165 | -81.00713 | 10033 ft | 298 kts | 114° |
| 2026-05-08 06:31 | 25.89370 | -80.98635 | 9847 ft | 291 kts | 113° |
| 2026-05-08 06:31 | 25.88574 | -80.96552 | 9498 ft | 294 kts | 113° |
| 2026-05-08 06:31 | 25.87774 | -80.94464 | 9155 ft | 293 kts | 114° |
| 2026-05-08 06:32 | 25.86976 | -80.92383 | 8851 ft | 292 kts | 114° |
| 2026-05-08 06:32 | 25.86179 | -80.90306 | 8594 ft | 291 kts | 114° |
| 2026-05-08 06:32 | 25.85385 | -80.88239 | 8340 ft | 291 kts | 113° |
| 2026-05-08 06:32 | 25.84592 | -80.86174 | 8090 ft | 290 kts | 114° |
| 2026-05-08 06:33 | 25.83800 | -80.84116 | 7992 ft | 290 kts | 114° |
| 2026-05-08 06:33 | 25.83042 | -80.82145 | 7989 ft | 290 kts | 114° |
| 2026-05-08 06:33 | 25.82249 | -80.80086 | 7870 ft | 286 kts | 114° |
| 2026-05-08 06:33 | 25.81466 | -80.78055 | 7396 ft | 285 kts | 113° |
| 2026-05-08 06:34 | 25.80686 | -80.76028 | 6902 ft | 286 kts | 113° |
| 2026-05-08 06:34 | 25.79905 | -80.74004 | 6479 ft | 284 kts | 113° |
| 2026-05-08 06:34 | 25.79130 | -80.71994 | 6030 ft | 282 kts | 114° |
| 2026-05-08 06:34 | 25.78361 | -80.69999 | 5620 ft | 279 kts | 114° |
| 2026-05-08 06:35 | 25.77608 | -80.68031 | 5209 ft | 275 kts | 112° |
| 2026-05-08 06:35 | 25.77156 | -80.66010 | 4792 ft | 274 kts | 95° |
| 2026-05-08 06:35 | 25.77154 | -80.63912 | 4361 ft | 271 kts | 88° |
| 2026-05-08 06:35 | 25.77297 | -80.61828 | 4061 ft | 269 kts | 84° |
| 2026-05-08 06:36 | 25.77465 | -80.59818 | 3985 ft | 253 kts | 86° |
| 2026-05-08 06:36 | 25.77559 | -80.57911 | 3989 ft | 246 kts | 88° |
| 2026-05-08 06:36 | 25.77618 | -80.56004 | 4016 ft | 248 kts | 89° |
| 2026-05-08 06:36 | 25.77663 | -80.54094 | 4023 ft | 248 kts | 89° |
| 2026-05-08 06:37 | 25.77746 | -80.52180 | 3814 ft | 248 kts | 88° |
| 2026-05-08 06:37 | 25.77834 | -80.50265 | 3472 ft | 249 kts | 88° |
| 2026-05-08 06:37 | 25.77911 | -80.48352 | 3084 ft | 245 kts | 88° |
| 2026-05-08 06:37 | 25.77986 | -80.46500 | 2685 ft | 237 kts | 87° |
| 2026-05-08 06:38 | 25.78062 | -80.44674 | 2356 ft | 236 kts | 87° |
| 2026-05-08 06:38 | 25.78136 | -80.42879 | 2044 ft | 226 kts | 87° |
| 2026-05-08 06:38 | 25.78203 | -80.41217 | 1787 ft | 206 kts | 86° |
| 2026-05-08 06:38 | 25.78265 | -80.39693 | 1535 ft | 190 kts | 86° |
| 2026-05-08 06:39 | 25.78323 | -80.38289 | 1275 ft | 174 kts | 86° |
| 2026-05-08 06:39 | 25.78376 | -80.37007 | 1059 ft | 160 kts | 86° |
| 2026-05-08 06:39 | 25.78427 | -80.35813 | 866 ft | 150 kts | 86° |
| 2026-05-08 06:39 | 25.78473 | -80.34699 | 677 ft | 140 kts | 88° |
| 2026-05-08 06:40 | 25.78519 | -80.33650 | 491 ft | 132 kts | 86° |
| 2026-05-08 06:40 | 25.78572 | -80.32632 | 320 ft | 132 kts | 87° |
| 2026-05-08 06:40 | 25.78611 | -80.31618 | 147 ft | 131 kts | 89° |
| 2026-05-08 06:40 | 25.78650 | -80.30607 | 32 ft | 128 kts | 87° |
| 2026-05-08 06:41 | 25.78684 | -80.29723 | 28 ft | 99 kts | 87° |
| 2026-05-08 06:41 | 25.78707 | -80.29179 | 29 ft | 59 kts | 86° |
| 2026-05-08 06:41 | 25.78730 | -80.28837 | 28 ft | 35 kts | 76° |
| 2026-05-08 06:41 | 25.78827 | -80.28685 | 29 ft | 22 kts | 22° |
| 2026-05-08 06:42 | 25.78996 | -80.28684 | 29 ft | 26 kts | 356° |
| 2026-05-08 06:42 | 25.79092 | -80.28642 | 27 ft | 20 kts | 55° |
| 2026-05-08 06:42 | 25.79138 | -80.28439 | 27 ft | 27 kts | 47° |
| 2026-05-08 06:42 | 25.79277 | -80.28323 | 29 ft | 25 kts | 56° |
| 2026-05-08 06:43 | 25.79282 | -80.28211 | 30 ft | 9 kts | 127° |
| 2026-05-08 06:43 | 25.79274 | -80.28204 | 30 ft | 7 kts | 145° |
| 2026-05-08 06:43 | 25.79270 | -80.28203 | 30 ft | 0 kts | 152° |